Time;durP1;ratioP1;P1;durP2;ratioP2;P2;SDS_P1;SDS_P2;PMS_P1;PMS_P2;Temp;Humidity;BMP_temperature;BMP_pressure;BME280_temperature;BME280_humidity;BME280_pressure;Samples;Min_cycle;Max_cycle;Signal;HPM_P1;HPM_P2
2021/03/01 00:01:54;;;;;;;;;;;;;;;2.27;100.00;102860.66;5052919;28;19971;-69
2021/03/01 00:04:21;;;;;;;;;;;;;;;2.31;100.00;102858.78;5052347;28;19936;-68
2021/03/01 00:06:47;;;;;;;;;;;;;;;2.34;100.00;102853.41;5034552;28;19924;-68
2021/03/01 00:09:12;;;;;;;;;;;;;;;2.34;100.00;102846.25;5052797;28;19924;-69
2021/03/01 00:11:38;;;;;;;;;;;;;;;2.33;100.00;102849.84;5071887;28;19946;-68
2021/03/01 00:14:04;;;;;;;;;;;;;;;2.34;100.00;102854.28;5037805;28;19924;-69
2021/03/01 00:16:30;;;;;;;;;;;;;;;2.37;100.00;102858.72;5072312;28;19936;-68
2021/03/01 00:18:56;;;;;;;;;;;;;;;2.39;100.00;102854.22;5072427;28;19924;-68
2021/03/01 00:21:22;;;;;;;;;;;;;;;2.40;100.00;102853.31;5071599;28;19924;-68
2021/03/01 00:23:48;;;;;;;;;;;;;;;2.42;100.00;102855.97;5071604;28;20015;-68
2021/03/01 00:26:14;;;;;;;;;;;;;;;2.44;100.00;102862.22;5072056;28;19924;-69
2021/03/01 00:28:41;;;;;;;;;;;;;;;2.47;100.00;102852.34;5056726;28;20051;-69
2021/03/01 00:31:07;;;;;;;;;;;;;;;2.48;100.00;102847.88;5052184;28;20025;-69
2021/03/01 00:33:32;;;;;;;;;;;;;;;2.50;100.00;102851.44;5052052;28;19987;-69
2021/03/01 00:35:58;;;;;;;;;;;;;;;2.48;100.00;102840.69;5052108;28;20379;-69
2021/03/01 00:38:25;;;;;;;;;;;;;;;2.47;100.00;102843.41;5051921;28;19932;-69
2021/03/01 00:40:51;;;;;;;;;;;;;;;2.47;100.00;102851.44;5051848;28;20347;-69
2021/03/01 00:43:24;;;;;;;;;;;;;;;2.47;100.00;102838.03;5108066;27;20022;-67
2021/03/01 00:45:50;;;;;;;;;;;;;;;2.47;100.00;102838.94;5108834;28;19924;-68
2021/03/01 00:48:15;;;;;;;;;;;;;;;2.44;100.00;102838.97;5108923;28;19935;-68
2021/03/01 00:50:41;;;;;;;;;;;;;;;2.44;100.00;102841.66;5108995;28;20286;-68
2021/03/01 00:53:07;;;;;;;;;;;;;;;2.43;100.00;102845.25;5109047;28;19927;-68
2021/03/01 00:55:33;;;;;;;;;;;;;;;2.43;100.00;102845.25;5108714;28;19928;-68
2021/03/01 00:57:59;;;;;;;;;;;;;;;2.47;100.00;102844.31;5094510;28;19935;-68
2021/03/01 01:00:26;;;;;;;;;;;;;;;2.46;100.00;102842.53;5087301;28;19928;-68
2021/03/01 01:02:59;;;;;;;;;;;;;;;2.48;100.00;102845.19;5088107;28;19978;-68
2021/03/01 01:05:41;;;;;;;;;;;;;;;2.45;100.00;102851.47;5086911;28;20299;-68
2021/03/01 01:08:08;;;;;;;;;;;;;;;2.44;100.00;102847.00;5088293;28;19924;-68
2021/03/01 01:10:33;;;;;;;;;;;;;;;2.44;100.00;102846.13;5088160;28;20085;-68
2021/03/01 01:12:59;;;;;;;;;;;;;;;2.41;100.00;102849.75;5106328;28;20401;-68
2021/03/01 01:15:26;;;;;;;;;;;;;;;2.39;100.00;102854.22;5108345;28;19955;-68
2021/03/01 01:17:52;;;;;;;;;;;;;;;2.39;100.00;102851.53;5107902;28;19970;-68
2021/03/01 01:20:18;;;;;;;;;;;;;;;2.39;100.00;102845.31;5108384;28;19924;-68
2021/03/01 01:22:44;;;;;;;;;;;;;;;2.39;100.00;102838.13;5108321;28;19931;-68
2021/03/01 01:25:11;;;;;;;;;;;;;;;2.41;100.00;102833.66;5108288;28;19924;-68
2021/03/01 01:27:37;;;;;;;;;;;;;;;2.41;100.00;102828.28;5107295;28;19964;-68
2021/03/01 01:30:04;;;;;;;;;;;;;;;2.40;100.00;102834.56;5108221;28;19966;-68
2021/03/01 01:32:31;;;;;;;;;;;;;;;2.39;100.00;102834.59;5108353;28;19935;-77
2021/03/01 01:34:56;;;;;;;;;;;;;;;2.39;100.00;102815.81;5108197;28;19999;-77
2021/03/01 01:37:23;;;;;;;;;;;;;;;2.37;100.00;102821.19;5107906;28;20385;-76
2021/03/01 01:39:49;;;;;;;;;;;;;;;2.38;100.00;102828.34;5108704;28;20021;-77
2021/03/01 01:42:14;;;;;;;;;;;;;;;2.37;100.00;102814.97;5120723;28;20380;-77
2021/03/01 01:44:40;;;;;;;;;;;;;;;2.39;100.00;102807.78;5129894;27;20300;-77
2021/03/01 01:47:06;;;;;;;;;;;;;;;2.35;100.00;102809.59;5129914;27;19975;-77
2021/03/01 01:49:33;;;;;;;;;;;;;;;2.36;100.00;102814.06;5129718;28;20346;-77
2021/03/01 01:51:58;;;;;;;;;;;;;;;2.36;100.00;102816.75;5134230;27;20408;-77
2021/03/01 01:54:24;;;;;;;;;;;;;;;2.35;100.00;102817.66;5114845;28;19924;-76
2021/03/01 01:56:50;;;;;;;;;;;;;;;2.36;100.00;102814.06;5103181;28;19930;-77
2021/03/01 01:59:16;;;;;;;;;;;;;;;2.36;100.00;102815.88;5120769;28;19928;-76
2021/03/01 02:01:42;;;;;;;;;;;;;;;2.36;100.00;102819.41;5115347;28;19966;-76
2021/03/01 02:04:10;;;;;;;;;;;;;;;2.34;100.00;102818.56;5114620;28;20348;-77
2021/03/01 02:06:44;;;;;;;;;;;;;;;2.34;100.00;102811.41;5114576;28;20438;-76
2021/03/01 02:09:18;;;;;;;;;;;;;;;2.36;100.00;102813.19;5114815;28;19958;-76
2021/03/01 02:11:54;;;;;;;;;;;;;;;2.33;100.00;102809.63;5114607;28;19924;-76
2021/03/01 02:14:25;;;;;;;;;;;;;;;2.34;100.00;102819.44;5114170;28;20040;-77
2021/03/01 02:16:51;;;;;;;;;;;;;;;2.32;100.00;102809.66;5114253;28;19967;-78
2021/03/01 02:19:17;;;;;;;;;;;;;;;2.30;100.00;102816.84;5114272;28;19950;-77
2021/03/01 02:21:44;;;;;;;;;;;;;;;2.31;100.00;102816.81;5114068;28;20397;-77
2021/03/01 02:24:11;;;;;;;;;;;;;;;2.32;100.00;102818.56;5114191;28;19967;-76
2021/03/01 02:26:39;;;;;;;;;;;;;;;2.34;100.00;102811.41;5107239;28;19956;-76
2021/03/01 02:29:07;;;;;;;;;;;;;;;2.32;100.00;102815.00;5093804;28;19932;-77
2021/03/01 02:31:35;;;;;;;;;;;;;;;2.31;100.00;102823.94;5093365;28;19966;-76
2021/03/01 02:34:02;;;;;;;;;;;;;;;2.29;100.00;102818.63;5092193;28;19967;-77
2021/03/01 02:36:29;;;;;;;;;;;;;;;2.31;100.00;102821.28;5093476;28;19970;-77
2021/03/01 02:38:57;;;;;;;;;;;;;;;2.34;100.00;102815.91;5093424;28;20301;-77
2021/03/01 02:41:24;;;;;;;;;;;;;;;2.35;100.00;102812.28;5098702;28;20490;-77
2021/03/01 02:43:51;;;;;;;;;;;;;;;2.38;100.00;102808.69;5113859;28;19958;-77
2021/03/01 02:46:17;;;;;;;;;;;;;;;2.43;100.00;102817.53;5113493;28;20457;-76
2021/03/01 02:48:43;;;;;;;;;;;;;;;2.43;100.00;102821.13;5113595;28;19963;-76
2021/03/01 02:51:10;;;;;;;;;;;;;;;2.46;100.00;102818.41;5113476;28;19997;-77
2021/03/01 02:53:37;;;;;;;;;;;;;;;2.47;100.00;102816.59;5113442;28;19955;-77
2021/03/01 02:56:05;;;;;;;;;;;;;;;2.48;100.00;102819.25;5113250;28;19978;-77
2021/03/01 02:58:32;;;;;;;;;;;;;;;2.52;100.00;102830.81;5113467;28;19923;-77
2021/03/01 03:00:58;;;;;;;;;;;;;;;2.51;100.00;102816.53;5112843;28;19963;-78
2021/03/01 03:03:25;;;;;;;;;;;;;;;2.52;100.00;102820.09;5113387;28;19935;-75
2021/03/01 03:05:52;;;;;;;;;;;;;;;2.51;100.00;102821.91;5111604;28;20420;-76
2021/03/01 03:08:18;;;;;;;;;;;;;;;2.55;100.00;102819.16;5113053;28;19966;-75
2021/03/01 03:10:45;;;;;;;;;;;;;;;2.59;100.00;102818.22;5113135;28;20014;-76
2021/03/01 03:13:12;;;;;;;;;;;;;;;2.61;100.00;102819.09;5113127;28;20381;-76
2021/03/01 03:15:39;;;;;;;;;;;;;;;2.61;100.00;102819.09;5112871;28;19924;-76
2021/03/01 03:18:07;;;;;;;;;;;;;;;2.60;100.00;102828.91;5112961;28;19923;-76
2021/03/01 03:20:33;;;;;;;;;;;;;;;2.58;100.00;102822.72;5113083;28;19967;-76
2021/03/01 03:23:00;;;;;;;;;;;;;;;2.59;100.00;102820.91;5112906;28;19966;-76
2021/03/01 03:25:26;;;;;;;;;;;;;;;2.60;100.00;102817.31;5112613;28;19963;-76
2021/03/01 03:27:52;;;;;;;;;;;;;;;2.58;100.00;102816.44;5092660;28;19931;-75
2021/03/01 03:30:21;;;;;;;;;;;;;;;2.55;100.00;102817.38;5091220;28;20332;-76
2021/03/01 03:32:47;;;;;;;;;;;;;;;2.54;100.00;102818.31;5092303;28;19979;-76
2021/03/01 03:35:14;;;;;;;;;;;;;;;2.59;100.00;102820.91;5091043;28;19928;-76
2021/03/01 03:37:42;;;;;;;;;;;;;;;2.60;100.00;102815.50;5092082;28;20381;-76
2021/03/01 03:40:09;;;;;;;;;;;;;;;2.61;100.00;102817.28;5090946;28;19924;-76
2021/03/01 03:42:36;;;;;;;;;;;;;;;2.66;100.00;102818.13;5091656;28;20364;-76
2021/03/01 03:45:05;;;;;;;;;;;;;;;2.67;100.00;102821.66;5092198;28;19964;-76
2021/03/01 03:47:32;;;;;;;;;;;;;;;2.66;100.00;102823.47;5092072;28;19967;-76
2021/03/01 03:49:59;;;;;;;;;;;;;;;2.68;100.00;102827.00;5092086;28;19928;-76
2021/03/01 03:52:28;;;;;;;;;;;;;;;2.63;100.00;102826.22;5092012;28;19981;-75
2021/03/01 03:54:55;;;;;;;;;;;;;;;2.65;100.00;102821.69;5090630;28;19924;-76
2021/03/01 03:57:22;;;;;;;;;;;;;;;2.61;100.00;102822.66;5109102;28;20004;-76
2021/03/01 03:59:50;;;;;;;;;;;;;;;2.59;100.00;102821.81;5112146;28;19951;-76
2021/03/01 04:02:18;;;;;;;;;;;;;;;2.55;100.00;102825.41;5111820;28;20396;-76
2021/03/01 04:04:45;;;;;;;;;;;;;;;2.63;100.00;102822.63;5112226;28;19969;-76
2021/03/01 04:07:11;;;;;;;;;;;;;;;2.58;100.00;102820.03;5112039;28;19958;-76
2021/03/01 04:09:41;;;;;;;;;;;;;;;2.59;100.00;102826.25;5112158;28;19946;-76
2021/03/01 04:12:10;;;;;;;;;;;;;;;2.60;100.00;102836.09;5112008;28;19939;-76
2021/03/01 04:14:36;;;;;;;;;;;;;;;2.56;100.00;102832.56;5110690;28;20026;-76
2021/03/01 04:17:04;;;;;;;;;;;;;;;2.57;100.00;102830.78;5111649;28;20419;-76
2021/03/01 04:19:31;;;;;;;;;;;;;;;2.57;100.00;102834.34;5112062;28;20397;-76
2021/03/01 04:22:00;;;;;;;;;;;;;;;2.54;100.00;102825.44;5111283;28;20415;-76
2021/03/01 04:24:28;;;;;;;;;;;;;;;2.53;100.00;102821.00;5111990;28;19959;-78
2021/03/01 04:26:54;;;;;;;;;;;;;;;2.49;100.00;102821.03;5110987;28;19970;-76
2021/03/01 04:29:20;;;;;;;;;;;;;;;2.51;100.00;102838.00;5112286;28;19924;-77
2021/03/01 04:31:48;;;;;;;;;;;;;;;2.52;100.00;102833.50;5110620;28;20016;-78
2021/03/01 04:34:16;;;;;;;;;;;;;;;2.52;100.00;102828.16;5111789;28;19962;-77
2021/03/01 04:36:42;;;;;;;;;;;;;;;2.54;100.00;102829.03;5110432;28;19924;-77
2021/03/01 04:39:09;;;;;;;;;;;;;;;2.54;100.00;102833.47;5111484;28;19992;-77
2021/03/01 04:41:35;;;;;;;;;;;;;;;2.52;100.00;102825.47;5111634;28;20396;-77
2021/03/01 04:44:01;;;;;;;;;;;;;;;2.51;100.00;102829.03;5111693;28;20012;-77
2021/03/01 04:46:28;;;;;;;;;;;;;;;2.51;100.00;102818.31;5110195;28;20377;-77
2021/03/01 04:48:54;;;;;;;;;;;;;;;2.51;100.00;102829.03;5111733;28;20409;-77
2021/03/01 04:51:20;;;;;;;;;;;;;;;2.54;100.00;102828.13;5111744;28;19924;-77
2021/03/01 04:53:46;;;;;;;;;;;;;;;2.54;100.00;102831.72;5111588;28;19924;-77
2021/03/01 04:56:12;;;;;;;;;;;;;;;2.57;100.00;102823.59;5110471;28;20011;-77
2021/03/01 04:58:38;;;;;;;;;;;;;;;2.57;100.00;102822.75;5111551;28;19955;-77
2021/03/01 05:01:05;;;;;;;;;;;;;;;2.54;100.00;102820.97;5111739;28;19953;-76
2021/03/01 05:03:32;;;;;;;;;;;;;;;2.53;100.00;102832.59;5111188;28;20471;-77
2021/03/01 05:05:58;;;;;;;;;;;;;;;2.53;100.00;102831.72;5111194;28;20347;-77
2021/03/01 05:08:25;;;;;;;;;;;;;;;2.49;100.00;102831.75;5111470;28;19924;-76
2021/03/01 05:10:51;;;;;;;;;;;;;;;2.50;100.00;102835.34;5111643;28;20020;-77
2021/03/01 05:13:17;;;;;;;;;;;;;;;2.49;100.00;102839.78;5111394;28;19955;-77
2021/03/01 05:15:43;;;;;;;;;;;;;;;2.53;100.00;102846.00;5111104;28;19985;-77
2021/03/01 05:18:09;;;;;;;;;;;;;;;2.52;100.00;102846.91;5111131;28;20413;-77
2021/03/01 05:20:35;;;;;;;;;;;;;;;2.53;100.00;102837.97;5111333;28;19977;-77
2021/03/01 05:23:01;;;;;;;;;;;;;;;2.55;100.00;102841.50;5109923;28;19928;-77
2021/03/01 05:25:27;;;;;;;;;;;;;;;2.57;100.00;102847.75;5103255;28;19927;-77
2021/03/01 05:27:53;;;;;;;;;;;;;;;2.61;100.00;102853.97;5090911;28;19931;-77
2021/03/01 05:30:20;;;;;;;;;;;;;;;2.60;100.00;102846.81;5094802;28;19993;-77
2021/03/01 05:32:46;;;;;;;;;;;;;;;2.59;100.00;102845.03;5093492;28;20030;-77
2021/03/01 05:35:12;;;;;;;;;;;;;;;2.56;100.00;102853.13;5094415;28;19946;-77
2021/03/01 05:37:38;;;;;;;;;;;;;;;2.54;100.00;102853.16;5094539;28;19947;-75
2021/03/01 05:40:05;;;;;;;;;;;;;;;2.55;100.00;102859.41;5094605;28;20382;-75
2021/03/01 05:42:31;;;;;;;;;;;;;;;2.55;100.00;102864.75;5094400;28;20490;-77
2021/03/01 05:44:58;;;;;;;;;;;;;;;2.57;100.00;102866.50;5096844;28;20092;-76
2021/03/01 05:47:26;;;;;;;;;;;;;;;2.56;100.00;102862.06;5094061;28;19963;-75
2021/03/01 05:49:52;;;;;;;;;;;;;;;2.57;100.00;102871.00;5094428;28;20432;-76
2021/03/01 05:52:20;;;;;;;;;;;;;;;2.54;100.00;102861.19;5094214;28;19924;-76
2021/03/01 05:54:46;;;;;;;;;;;;;;;2.55;100.00;102870.13;5097329;28;19924;-75
2021/03/01 05:57:13;;;;;;;;;;;;;;;2.58;100.00;102870.06;5114421;28;19971;-76
2021/03/01 05:59:39;;;;;;;;;;;;;;;2.59;100.00;102866.47;5113681;28;19923;-76
2021/03/01 06:02:05;;;;;;;;;;;;;;;2.62;100.00;102874.47;5114491;28;19931;-76
2021/03/01 06:04:32;;;;;;;;;;;;;;;2.62;100.00;102879.84;5102480;28;19924;-77
2021/03/01 06:06:58;;;;;;;;;;;;;;;2.65;100.00;102869.09;5093706;28;19935;-77
2021/03/01 06:09:24;;;;;;;;;;;;;;;2.65;100.00;102874.47;5094857;28;20305;-76
2021/03/01 06:11:52;;;;;;;;;;;;;;;2.65;100.00;102866.41;5093813;28;19959;-75
2021/03/01 06:14:18;;;;;;;;;;;;;;;2.67;100.00;102873.53;5100015;28;19982;-75
2021/03/01 06:17:02;;;;;;;;;;;;;;;2.71;100.00;102874.34;5098335;28;19924;-75
2021/03/01 06:19:43;;;;;;;;;;;;;;;2.70;100.00;102877.97;5112686;28;20030;-76
2021/03/01 06:22:09;;;;;;;;;;;;;;;2.72;100.00;102880.63;5104677;28;19924;-75
2021/03/01 06:24:35;;;;;;;;;;;;;;;2.77;100.00;102879.66;5093919;28;19931;-76
2021/03/01 06:27:01;;;;;;;;;;;;;;;2.78;100.00;102877.84;5105169;28;19977;-76
2021/03/01 06:29:26;;;;;;;;;;;;;;;2.81;100.00;102878.69;5113698;28;20393;-76
2021/03/01 06:31:52;;;;;;;;;;;;;;;2.82;100.00;102871.56;5101561;28;19933;-75
2021/03/01 06:34:24;;;;;;;;;;;;;;;2.83;100.00;102879.56;5092718;28;20393;-75
2021/03/01 06:36:59;;;;;;;;;;;;;;;2.90;100.00;102882.16;5105138;28;20351;-74
2021/03/01 06:39:26;;;;;;;;;;;;;;;2.92;100.00;102878.53;5113530;28;19974;-73
2021/03/01 06:41:52;;;;;;;;;;;;;;;2.94;100.00;102873.13;5101483;28;19963;-74
2021/03/01 06:44:17;;;;;;;;;;;;;;;2.96;100.00;102872.22;5093254;28;20066;-75
2021/03/01 06:46:49;;;;;;;;;;;;;;;3.01;100.00;102873.03;5093815;28;19947;-74
2021/03/01 06:49:15;;;;;;;;;;;;;;;3.08;100.00;102872.94;5098959;28;20487;-72
2021/03/01 06:51:41;;;;;;;;;;;;;;;3.15;100.00;102874.59;5104956;28;19928;-73
2021/03/01 06:54:08;;;;;;;;;;;;;;;3.21;100.00;102879.00;5105287;28;20073;-73
2021/03/01 06:56:37;;;;;;;;;;;;;;;3.29;100.00;102872.59;5091379;28;19974;-73
2021/03/01 06:59:10;;;;;;;;;;;;;;;3.38;100.00;102878.72;5098145;28;20075;-74
2021/03/01 07:01:43;;;;;;;;;;;;;;;3.42;100.00;102875.97;5113315;28;19934;-74
2021/03/01 07:04:08;;;;;;;;;;;;;;;3.49;100.00;102869.56;5108811;28;19954;-73
2021/03/01 07:06:35;;;;;;;;;;;;;;;3.51;100.00;102865.06;5112994;28;20439;-73
2021/03/01 07:09:00;;;;;;;;;;;;;;;3.54;100.00;102863.22;5103491;28;19965;-73
2021/03/01 07:11:28;;;;;;;;;;;;;;;3.58;100.00;102862.25;5102165;28;19927;-74
2021/03/01 07:13:55;;;;;;;;;;;;;;;3.63;100.00;102855.88;5111546;28;19924;-73
2021/03/01 07:16:21;;;;;;;;;;;;;;;3.71;100.00;102862.94;5098904;28;20018;-73
2021/03/01 07:18:47;;;;;;;;;;;;;;;3.75;100.00;102870.03;5112939;28;20304;-74
2021/03/01 07:21:13;;;;;;;;;;;;;;;3.76;100.00;102861.06;5105384;28;19932;-73
2021/03/01 07:23:41;;;;;;;;;;;;;;;3.79;100.00;102864.56;5092391;28;20442;-73
2021/03/01 07:26:07;;;;;;;;;;;;;;;3.81;100.00;102864.56;5110637;28;19958;-74
2021/03/01 07:28:35;;;;;;;;;;;;;;;3.80;100.00;102869.03;5112804;28;20023;-75
2021/03/01 07:31:01;;;;;;;;;;;;;;;3.83;100.00;102865.41;5099172;28;20399;-74
2021/03/01 07:33:27;;;;;;;;;;;;;;;3.84;100.00;102869.84;5092955;28;19928;-74
2021/03/01 07:35:53;;;;;;;;;;;;;;;3.94;100.00;102867.88;5093285;28;19939;-73
2021/03/01 07:38:19;;;;;;;;;;;;;;;3.96;100.00;102868.75;5092389;28;19951;-74
2021/03/01 07:40:45;;;;;;;;;;;;;;;3.98;100.00;102872.28;5099910;28;20022;-73
2021/03/01 07:43:12;;;;;;;;;;;;;;;4.04;100.00;102880.22;5111911;28;19969;-74
2021/03/01 07:45:39;;;;;;;;;;;;;;;4.15;100.00;102880.00;5111656;28;19967;-74
2021/03/01 07:48:12;;;;;;;;;;;;;;;4.16;100.00;102888.03;5112499;28;19931;-74
2021/03/01 07:50:39;;;;;;;;;;;;;;;4.16;100.00;102879.09;5097441;28;19991;-74
2021/03/01 07:53:05;;;;;;;;;;;;;;;4.19;100.00;102879.91;5110660;28;19969;-74
2021/03/01 07:55:31;;;;;;;;;;;;;;;4.18;100.00;102885.31;5097567;28;19928;-73
2021/03/01 07:58:00;;;;;;;;;;;;;;;4.23;100.00;102875.34;5110495;28;19963;-74
2021/03/01 08:00:27;;;;;;;;;;;;;;;4.32;100.00;102880.56;5110643;28;19928;-74
2021/03/01 08:02:54;;;;;;;;;;;;;;;4.42;100.00;102883.94;5110128;28;19938;-74
2021/03/01 08:05:21;;;;;;;;;;;;;;;4.50;100.00;102887.38;5111931;28;20556;-75
2021/03/01 08:07:47;;;;;;;;;;;;;;;4.46;100.00;102887.44;5099498;28;19931;-74
2021/03/01 08:10:17;;;;;;;;;;;;;;;4.52;100.00;102885.50;5111489;28;19928;-74
2021/03/01 08:12:56;;;;;;;;;;;;;;;4.59;100.00;102891.66;5099813;28;19930;-74
2021/03/01 08:15:26;;;;;;;;;;;;;;;4.63;100.00;102887.97;5092463;28;19928;-75
2021/03/01 08:17:52;;;;;;;;;;;;;;;4.62;100.00;102890.69;5093577;28;19924;-74
2021/03/01 08:20:29;;;;;;;;;;;;;;;4.78;100.00;102885.88;5090702;28;19928;-74
2021/03/01 08:23:14;;;;;;;;;;;;;;;4.67;100.00;102896.88;5099505;28;19930;-73
2021/03/01 08:25:54;;;;;;;;;;;;;;;4.69;100.00;102892.34;5092698;28;20392;-73
2021/03/01 08:28:35;;;;;;;;;;;;;;;4.73;100.00;102895.84;5108076;28;20018;-73
2021/03/01 08:31:16;;;;;;;;;;;;;;;4.72;100.00;102894.06;5098401;28;19924;-75
2021/03/01 08:33:42;;;;;;;;;;;;;;;4.91;100.00;102894.56;5111594;28;20080;-74
2021/03/01 08:36:20;;;;;;;;;;;;;;;4.92;100.00;102897.22;5105910;28;19971;-74
2021/03/01 08:38:49;;;;;;;;;;;;;;;4.91;100.00;102895.44;5094238;28;19964;-73
2021/03/01 08:41:15;;;;;;;;;;;;;;;5.02;100.00;102903.25;5109234;28;19996;-74
2021/03/01 08:43:42;;;;;;;;;;;;;;;4.88;100.00;102891.91;5111269;28;20010;-76
2021/03/01 08:46:15;;;;;;;;;;;;;;;4.86;100.00;102897.34;5110430;28;20022;-74
2021/03/01 08:48:41;;;;;;;;;;;;;;;4.91;100.00;102905.31;5109739;28;19932;-75
2021/03/01 08:51:09;;;;;;;;;;;;;;;4.99;100.00;102904.22;5095783;28;19923;-76
2021/03/01 08:53:36;;;;;;;;;;;;;;;5.00;100.00;102899.72;5101932;28;19928;-75
2021/03/01 08:56:02;;;;;;;;;;;;;;;4.95;100.00;102904.31;5110441;28;20023;-74
2021/03/01 08:58:30;;;;;;;;;;;;;;;5.10;100.00;102906.66;5108064;28;19946;-75
2021/03/01 09:00:57;;;;;;;;;;;;;;;5.20;100.00;102913.59;5089878;28;19924;-75
2021/03/01 09:03:25;;;;;;;;;;;;;;;5.17;100.00;102908.28;5102461;28;19928;-74
2021/03/01 09:05:52;;;;;;;;;;;;;;;5.19;100.00;102909.13;5114907;28;19924;-74
2021/03/01 09:08:23;;;;;;;;;;;;;;;5.21;100.00;102909.09;5114616;28;20040;-74
2021/03/01 09:10:50;;;;;;;;;;;;;;;5.27;100.00;102918.84;5114204;28;20373;-74
2021/03/01 09:13:16;;;;;;;;;;;;;;;5.36;100.00;102915.94;5098783;28;19974;-73
2021/03/01 09:15:42;;;;;;;;;;;;;;;5.47;100.00;102918.38;5094920;28;19924;-73
2021/03/01 09:18:09;;;;;;;;;;;;;;;5.32;100.00;102919.63;5104524;28;19927;-74
2021/03/01 09:20:38;;;;;;;;;;;;;;;5.45;100.00;102921.09;5110614;28;19930;-74
2021/03/01 09:23:04;;;;;;;;;;;;;;;5.43;100.00;102920.22;5097260;28;20438;-74
2021/03/01 09:25:31;;;;;;;;;;;;;;;5.52;100.00;102921.81;5114176;28;19986;-75
2021/03/01 09:27:58;;;;;;;;;;;;;;;5.64;100.00;102920.63;5099470;28;19997;-75
2021/03/01 09:30:24;;;;;;;;;;;;;;;5.58;100.00;102920.78;5097752;28;19997;-75
2021/03/01 09:32:54;;;;;;;;;;;;;;;5.65;100.00;102922.38;5116258;28;19924;-75
2021/03/01 09:35:20;;;;;;;;;;;;;;;5.66;100.00;102925.03;5118728;28;20350;-74
2021/03/01 09:37:46;;;;;;;;;;;;;;;5.56;100.00;102926.22;5094935;28;19924;-73
2021/03/01 09:40:16;;;;;;;;;;;;;;;5.67;100.00;102925.94;5102897;28;19969;-75
2021/03/01 09:42:45;;;;;;;;;;;;;;;5.72;100.00;102929.41;5094562;28;19924;-75
2021/03/01 09:45:13;;;;;;;;;;;;;;;5.79;100.00;102939.09;5104887;28;19981;-74
2021/03/01 09:47:38;;;;;;;;;;;;;;;5.92;100.00;102931.59;5100147;28;20045;-75
2021/03/01 09:50:05;;;;;;;;;;;;;;;5.82;100.00;102928.22;5112638;28;19924;-74
2021/03/01 09:52:31;;;;;;;;;;;;;;;5.82;100.00;102922.81;5098331;28;19963;-74
2021/03/01 09:54:58;;;;;;;;;;;;;;;5.90;100.00;102927.16;5094386;28;19924;-75
2021/03/01 09:57:28;;;;;;;;;;;;;;;5.99;100.00;102921.56;5095773;28;19962;-75
2021/03/01 09:59:54;;;;;;;;;;;;;;;6.12;100.00;102925.69;5105349;28;20289;-75
2021/03/01 10:02:23;;;;;;;;;;;;;;;6.22;100.00;102922.72;5097223;28;19924;-75
2021/03/01 10:04:51;;;;;;;;;;;;;;;6.11;100.00;102921.22;5114101;28;19976;-75
2021/03/01 10:07:17;;;;;;;;;;;;;;;6.35;100.00;102925.03;5112071;28;20026;-75
2021/03/01 10:09:43;;;;;;;;;;;;;;;6.35;100.00;102934.94;5111558;28;19978;-75
2021/03/01 10:12:09;;;;;;;;;;;;;;;6.35;100.00;102937.66;5095009;28;19928;-75
2021/03/01 10:14:35;;;;;;;;;;;;;;;6.29;100.00;102930.59;5111297;28;19924;-75
2021/03/01 10:17:13;;;;;;;;;;;;;;;6.51;100.00;102932.69;5114028;28;19931;-76
2021/03/01 10:19:40;;;;;;;;;;;;;;;6.83;100.00;102933.56;5109547;27;19969;-75
2021/03/01 10:22:06;;;;;;;;;;;;;;;6.94;100.00;102928.69;5121766;27;19924;-76
2021/03/01 10:24:41;;;;;;;;;;;;;;;7.14;100.00;102933.47;5095654;27;19928;-76
2021/03/01 10:27:08;;;;;;;;;;;;;;;7.10;100.00;102934.50;5103995;28;19983;-75
2021/03/01 10:29:34;;;;;;;;;;;;;;;7.12;100.00;102926.34;5113293;28;20521;-76
2021/03/01 10:32:01;;;;;;;;;;;;;;;7.31;100.00;102932.03;5112740;28;20571;-76
2021/03/01 10:34:28;;;;;;;;;;;;;;;7.12;100.00;102929.97;5113512;28;19932;-76
2021/03/01 10:36:57;;;;;;;;;;;;;;;7.23;100.00;102928.72;5111246;28;20447;-76
2021/03/01 10:39:23;;;;;;;;;;;;;;;7.24;100.00;102914.28;5110136;28;19924;-75
2021/03/01 10:41:50;;;;;;;;;;;;;;;7.27;100.00;102914.16;5101536;28;19927;-75
2021/03/01 10:44:17;;;;;;;;;;;;;;;7.56;100.00;102915.03;5100396;28;19958;-75
2021/03/01 10:46:45;;;;;;;;;;;;;;;7.75;100.00;102912.56;5093176;28;19964;-76
2021/03/01 10:49:18;;;;;;;;;;;;;;;7.74;100.00;102914.41;5113282;28;19924;-76
2021/03/01 10:51:44;;;;;;;;;;;;;;;8.26;100.00;102911.69;5101348;28;19971;-77
2021/03/01 10:54:11;;;;;;;;;;;;;;;9.04;100.00;102898.81;5099843;28;19947;-76
2021/03/01 10:56:37;;;;;;;;;;;;;;;8.98;100.00;102901.75;5103072;28;19971;-77
2021/03/01 10:59:03;;;;;;;;;;;;;;;9.41;100.00;102901.81;5101245;28;19924;-77
2021/03/01 11:01:32;;;;;;;;;;;;;;;9.60;100.00;102905.53;5112055;28;20368;-76
2021/03/01 11:03:58;;;;;;;;;;;;;;;9.31;100.00;102895.91;5112916;28;19974;-76
2021/03/01 11:06:24;;;;;;;;;;;;;;;8.84;100.00;102905.88;5112850;28;19955;-76
2021/03/01 11:08:50;;;;;;;;;;;;;;;8.97;100.00;102897.28;5107576;28;19930;-77
2021/03/01 11:11:17;;;;;;;;;;;;;;;9.15;100.00;102901.97;5112890;28;19924;-76
2021/03/01 11:13:43;;;;;;;;;;;;;;;9.43;100.00;102906.22;5105095;28;20027;-76
2021/03/01 11:16:09;;;;;;;;;;;;;;;10.41;100.00;102894.78;5105427;28;19928;-76
2021/03/01 11:18:34;;;;;;;;;;;;;;;10.81;100.00;102897.44;5105814;28;19931;-76
2021/03/01 11:21:00;;;;;;;;;;;;;;;11.30;100.00;102894.19;5105827;28;19987;-76
2021/03/01 11:23:26;;;;;;;;;;;;;;;11.25;99.30;102888.97;5108805;28;20026;-76
2021/03/01 11:25:52;;;;;;;;;;;;;;;11.25;98.93;102897.13;5095412;28;19931;-75
2021/03/01 11:28:19;;;;;;;;;;;;;;;11.54;96.95;102898.38;5107891;28;20155;-76
2021/03/01 11:30:45;;;;;;;;;;;;;;;10.94;98.76;102893.19;5100810;28;20008;-76
2021/03/01 11:33:10;;;;;;;;;;;;;;;10.81;100.00;102886.56;5095299;28;20283;-75
2021/03/01 11:35:36;;;;;;;;;;;;;;;10.52;100.00;102892.44;5105041;28;19953;-76
2021/03/01 11:38:02;;;;;;;;;;;;;;;10.30;100.00;102888.91;5107540;28;20313;-76
2021/03/01 11:40:28;;;;;;;;;;;;;;;10.28;100.00;102880.84;5104067;28;19928;-75
2021/03/01 11:42:54;;;;;;;;;;;;;;;9.86;100.00;102885.44;5108793;28;19930;-75
2021/03/01 11:45:20;;;;;;;;;;;;;;;10.75;100.00;102876.88;5109805;28;19951;-76
2021/03/01 11:47:46;;;;;;;;;;;;;;;10.87;100.00;102873.56;5092933;28;19975;-77
2021/03/01 11:50:12;;;;;;;;;;;;;;;11.06;100.00;102880.84;5103646;28;20382;-76
2021/03/01 11:52:38;;;;;;;;;;;;;;;11.62;96.62;102867.19;5110032;28;20015;-77
2021/03/01 11:55:04;;;;;;;;;;;;;;;11.75;95.23;102873.75;5105404;28;19923;-75
2021/03/01 11:57:30;;;;;;;;;;;;;;;11.64;91.91;102877.03;5101469;28;19959;-75
2021/03/01 11:59:56;;;;;;;;;;;;;;;11.65;94.31;102880.63;5108169;28;19924;-76
2021/03/01 12:02:22;;;;;;;;;;;;;;;11.73;95.04;102875.66;5111363;28;19924;-76
2021/03/01 12:04:48;;;;;;;;;;;;;;;11.13;94.22;102876.88;5112198;28;19928;-76
2021/03/01 12:07:14;;;;;;;;;;;;;;;11.10;96.46;102874.28;5111725;28;19924;-75
2021/03/01 12:09:40;;;;;;;;;;;;;;;11.82;91.68;102869.72;5095644;28;20018;-75
2021/03/01 12:12:06;;;;;;;;;;;;;;;12.38;91.34;102862.22;5091790;28;20374;-76
2021/03/01 12:14:31;;;;;;;;;;;;;;;12.13;88.88;102856.38;5101876;28;20285;-76
2021/03/01 12:16:57;;;;;;;;;;;;;;;12.53;87.15;102860.53;5111503;28;19923;-76
2021/03/01 12:19:24;;;;;;;;;;;;;;;12.08;85.72;102862.06;5110750;28;20297;-77
2021/03/01 12:21:50;;;;;;;;;;;;;;;12.31;87.57;102859.94;5110653;28;19946;-76
2021/03/01 12:24:15;;;;;;;;;;;;;;;12.82;82.67;102855.25;5105936;28;20385;-75
2021/03/01 12:26:41;;;;;;;;;;;;;;;13.31;80.26;102850.63;5109470;28;19924;-76
2021/03/01 12:29:08;;;;;;;;;;;;;;;13.58;76.15;102845.41;5111750;28;19924;-75
2021/03/01 12:31:33;;;;;;;;;;;;;;;13.06;81.93;102849.38;5100552;28;19946;-76
2021/03/01 12:33:59;;;;;;;;;;;;;;;12.62;79.89;102842.75;5109946;28;19931;-77
2021/03/01 12:36:26;;;;;;;;;;;;;;;12.77;80.99;102838.28;5110563;28;19924;-77